Main page
METAR-TAF:

METAR-TAF

Airports :

Yakutsk Airport

Yakutsk, Russia

latitude: 62-01N, longitude: 129-43E, elevation: 103 m

Current weather observation

The report was made 25 minutes ago, at 04:00 UTC
Calm wind
Temperature -18°C
Humidity 77%
Pressure 1022 hPa
Visibility 10 km or more
no clouds below 1500 m and no cumulonimbus

METAR: UEEE 250400Z 00000MPS CAVOK M18/M21 Q1022 R23L/450151 NOSIG RMK QFE758

Time: 13:25 (04:25 UTC)

Forecast

The report was made 2 hours and 25 minutes ago, at 02:00 UTC
Forecast valid from 25 at 03 UTC to 26 at 09 UTC
Wind 6 kt from the Northeast
Visibility 10 km or more
Scattered clouds at a height of 3000 ft
Overcast at a height of 7000 ft
Temporary
from 25 at 03 UTC to 25 at 18 UTC
Visibility: 3200 m
light snow

TAF: UEEE 250200Z 2503/2609 04003MPS 9999 SCT030 OVC070 TEMPO 2503/2518 3200 -SN

Weather observations and forecasts of more than 4000 airports (METAR and TAF reports).

The available stations are represented by yellow and red dots on the map.

Hover mouse over dot to see the name of the station.

Then click to see weather observations and forecasts.

To change the map : click on the green buttons with a black cross to zoom in, on the green button with a dash to zoom out, or on the green arrows for adjacent maps.


METAR-TAF: